Forside
METAR-TAF:

METAR-TAF

Lufthavne :

Beijing Capital International Airport

Beijing, Kina

Breddekreds: 39-56N, længdekreds: 116-17E, højde: 55 m

Aktuelle vejr

Denne rapport blev lavet for 16 minutter siden, kl. 13:00 UTC
Vind 2 kt fra varierende retninger
Temperatur -4°C
Fugtighed 58%
Tryk 1022 hPa
Sigt 10 km eller mere
ingen skyer under 1500m og ingen cumulonimbus

METAR: ZBAA 191300Z VRB01MPS CAVOK M04/M11 Q1022 NOSIG

Tid: 21:16 (13:16 UTC)

Vejrudsigter

Denne rapport blev lavet for 3 timer og 46 minutter siden, kl. 09:30 UTC
Foreløbig gælder fra 19 på 12 UTC til 20 på 12 UTC
Vind 6 kt fra syd
Sigt 10 km eller mere
ingen skyer under 1500m og ingen cumulonimbus

TAF: ZBAA 190930Z 1912/2012 18003MPS CAVOK TX06/2007Z TNM05/22Z

Vejrobservationer og prognoser fra mere end 4000 lufthavne (METAR og TAF).

De gule og røde prikker repræsenterer de meteorologiske stationer.

Flyt musen over at se navnet på stationen.

Så klik over at se vejr observationer og prognoser.

At skifte det kort: Klik på de grønne knapper med et sort kors for at zoome ind; på den grønne knap med en bindestreg for at zoome ud; eller på de grønne pile for tilstødende kort.


METAR-TAF: